Time;durP1;ratioP1;P1;durP2;ratioP2;P2;SDS_P1;SDS_P2;PMS_P1;PMS_P2;Temp;Humidity;BMP_temperature;BMP_pressure;BME280_temperature;BME280_humidity;BME280_pressure;Samples;Min_cycle;Max_cycle;Signal;HPM_P1;HPM_P2
2022/09/30 00:00:09;;;;;;;;;20.50;18.50;;;;;12.77;62.57;100157.81;4859631;29;45773;-79
2022/09/30 00:02:34;;;;;;;;;33.00;29.75;;;;;12.68;62.70;100156.00;4859873;29;46068;-79
2022/09/30 00:04:59;;;;;;;;;27.50;25.25;;;;;12.66;63.02;100161.38;4859811;29;45674;-79
2022/09/30 00:07:30;;;;;;;;;35.75;34.00;;;;;12.63;62.99;100161.66;4859953;29;45525;-80
2022/09/30 00:09:56;;;;;;;;;33.50;29.25;;;;;12.60;62.94;100161.91;4859239;29;45586;-79
2022/09/30 00:12:26;;;;;;;;;28.50;27.25;;;;;12.57;63.03;100151.69;4859770;29;45919;-80
2022/09/30 00:14:57;;;;;;;;;23.50;22.00;;;;;12.58;63.09;100154.16;4859839;29;45927;-77
2022/09/30 00:20:46;;;;;;;;;22.75;21.25;;;;;12.61;62.90;100153.06;4859134;29;45591;-77
2022/09/30 00:23:11;;;;;;;;;18.50;17.25;;;;;12.61;62.55;100148.66;4858012;29;47057;-77
2022/09/30 00:25:36;;;;;;;;;22.75;22.75;;;;;12.65;62.57;100157.09;4859508;29;45697;-77
2022/09/30 00:28:02;;;;;;;;;22.50;21.75;;;;;12.65;62.95;100154.47;4859590;29;45722;-78
2022/09/30 00:30:27;;;;;;;;;19.75;17.50;;;;;12.67;62.78;100155.16;4859480;29;45605;-78
2022/09/30 00:32:53;;;;;;;;;24.25;20.50;;;;;12.68;62.89;100161.25;4859043;29;46055;-77
2022/09/30 00:35:20;;;;;;;;;24.25;22.50;;;;;12.67;63.12;100165.69;4859349;29;45518;-78
2022/09/30 00:37:46;;;;;;;;;23.25;22.00;;;;;12.68;63.13;100158.63;4859610;29;45553;-81
2022/09/30 00:40:11;;;;;;;;;21.25;20.50;;;;;12.63;63.26;100153.78;4859253;29;45615;-79
2022/09/30 00:42:40;;;;;;;;;22.00;20.00;;;;;12.61;62.83;100153.06;4859477;29;45596;-77
2022/09/30 00:45:09;;;;;;;;;20.50;18.75;;;;;12.53;63.09;100139.75;4857753;29;45672;-78
2022/09/30 00:50:57;;;;;;;;;16.50;16.50;;;;;12.52;63.39;100161.75;4858906;29;46064;-77
2022/09/30 00:53:47;;;;;;;;;20.25;17.75;;;;;12.49;63.67;100162.84;4859143;29;46140;-77
2022/09/30 00:56:41;;;;;;;;;22.25;20.00;;;;;12.47;63.73;100163.94;4859325;29;45874;-77
2022/09/30 00:59:12;;;;;;;;;20.50;18.75;;;;;12.46;63.80;100162.28;4820968;29;45587;-78
2022/09/30 01:01:46;;;;;;;;;19.00;16.75;;;;;12.42;63.78;100160.84;4823072;29;46781;-77
2022/09/30 01:04:21;;;;;;;;;18.50;18.50;;;;;12.37;63.89;100163.03;4822807;29;46111;-76
2022/09/30 01:06:47;;;;;;;;;17.75;17.00;;;;;12.33;63.81;100161.66;4823226;29;45826;-77
2022/09/30 01:09:14;;;;;;;;;18.00;16.50;;;;;12.30;64.20;100161.94;4807568;29;45981;-76
2022/09/30 01:11:40;;;;;;;;;21.50;19.50;;;;;12.26;64.35;100169.22;4823146;29;45678;-77
2022/09/30 01:14:21;;;;;;;;;23.50;19.00;;;;;12.24;64.13;100168.53;4823135;29;46018;-77
2022/09/30 01:16:55;;;;;;;;;17.25;16.25;;;;;12.22;64.33;100172.25;4822897;29;45802;-78
2022/09/30 01:19:23;;;;;;;;;20.00;19.00;;;;;12.21;64.11;100168.78;4822991;29;45966;-77
2022/09/30 01:22:07;;;;;;;;;16.50;15.50;;;;;12.21;64.21;100171.41;4822834;29;45762;-77
2022/09/30 01:24:51;;;;;;;;;18.50;18.00;;;;;12.21;64.26;100174.03;4822744;29;46132;-77
2022/09/30 01:27:43;;;;;;;;;15.50;14.50;;;;;12.19;64.27;100166.31;4822817;29;45792;-79
2022/09/30 01:30:16;;;;;;;;;21.25;19.00;;;;;12.18;64.42;100158.53;4822780;29;45586;-77
2022/09/30 01:33:17;;;;;;;;;20.50;19.25;;;;;12.19;64.23;100165.47;4813391;29;46431;-78
2022/09/30 01:36:17;;;;;;;;;21.25;20.75;;;;;12.19;64.10;100160.22;4781180;29;46118;-79
2022/09/30 01:38:50;;;;;;;;;33.25;31.00;;;;;12.18;64.28;100169.06;4786004;29;45725;-77
2022/09/30 01:41:49;;;;;;;;;35.00;28.75;;;;;12.18;64.03;100167.25;4786047;29;45826;-77
2022/09/30 01:45:01;;;;;;;;;38.00;35.00;;;;;12.20;64.02;100167.09;4785969;29;46892;-78
2022/09/30 01:47:45;;;;;;;;;23.00;21.00;;;;;12.20;63.83;100162.69;4785842;29;46105;-77
2022/09/30 01:50:35;;;;;;;;;22.25;20.75;;;;;12.22;64.10;100162.56;4785590;29;45975;-77
2022/09/30 01:53:26;;;;;;;;;22.25;21.25;;;;;12.20;64.34;100167.09;4786197;29;45691;-78
2022/09/30 01:56:02;;;;;;;;;30.75;30.00;;;;;12.18;64.14;100164.63;4770614;29;46087;-78
2022/09/30 01:58:52;;;;;;;;;21.50;20.75;;;;;12.20;64.18;100181.06;4785786;29;46481;-77
2022/09/30 02:04:47;;;;;;;;;16.25;13.75;;;;;12.16;64.56;100182.31;4785670;29;45754;-77
2022/09/30 02:07:25;;;;;;;;;20.25;18.50;;;;;12.14;64.40;100171.13;4785554;29;46438;-77
2022/09/30 02:09:57;;;;;;;;;15.50;14.50;;;;;12.12;64.44;100164.31;4785447;29;46037;-77
2022/09/30 02:12:27;;;;;;;;;22.25;19.50;;;;;12.11;64.36;100162.66;4809102;29;45828;-78
2022/09/30 02:15:14;;;;;;;;;21.00;17.00;;;;;12.11;64.39;100166.09;4822327;29;45634;-78
2022/09/30 02:21:05;;;;;;;;;20.75;20.00;;;;;12.12;64.52;100165.16;4821783;29;45792;-77
2022/09/30 02:23:34;;;;;;;;;25.00;21.75;;;;;12.11;64.40;100160.84;4822205;29;45502;-78
2022/09/30 02:26:11;;;;;;;;;22.00;21.00;;;;;12.15;64.25;100164.88;4822266;29;45872;-79
2022/09/30 02:28:45;;;;;;;;;24.25;21.50;;;;;12.12;64.04;100159.06;4822016;29;46808;-78
2022/09/30 02:31:14;;;;;;;;;22.00;20.75;;;;;12.16;64.13;100157.84;4821637;29;48225;-78
2022/09/30 02:37:44;;;;;;;;;23.25;22.50;;;;;12.17;63.99;100151.63;4821807;29;45500;-77
2022/09/30 02:40:17;;;;;;;;;21.00;19.50;;;;;12.17;64.24;100165.59;4842001;29;46582;-78
2022/09/30 02:42:44;;;;;;;;;20.00;18.75;;;;;12.14;64.29;100159.78;4842413;29;46115;-76
2022/09/30 02:45:15;;;;;;;;;19.00;16.75;;;;;12.14;64.09;100154.53;4842495;29;45598;-76
2022/09/30 02:51:10;;;;;;;;;18.75;15.50;;;;;12.09;64.59;100167.22;4841725;29;46113;-77
2022/09/30 02:54:01;;;;;;;;;13.75;13.50;;;;;12.06;64.79;100170.09;4842233;29;45456;-76
2022/09/30 02:56:46;;;;;;;;;15.25;14.75;;;;;12.03;64.65;100175.59;4840651;29;45739;-77
2022/09/30 02:59:11;;;;;;;;;15.00;15.00;;;;;11.98;64.51;100183.03;4842404;29;45581;-77
2022/09/30 03:01:40;;;;;;;;;14.00;14.00;;;;;11.98;65.00;100172.53;4842218;29;46729;-78
2022/09/30 03:07:27;;;;;;;;;16.50;15.50;;;;;11.91;64.92;100177.47;4841900;29;45702;-79
2022/09/30 03:09:57;;;;;;;;;19.00;18.00;;;;;11.90;64.88;100180.19;4842111;29;45564;-76
2022/09/30 03:13:10;;;;;;;;;15.25;14.75;;;;;11.86;65.10;100176.19;4841938;29;46720;-77
2022/09/30 03:16:01;;;;;;;;;17.25;17.25;;;;;11.81;65.15;100194.09;4839968;29;46205;-78
2022/09/30 03:19:22;;;;;;;;;16.00;14.25;;;;;11.71;65.30;100205.31;4839397;29;45817;-78
2022/09/30 03:22:28;;;;;;;;;17.25;15.00;;;;;11.61;65.59;100212.28;4784493;29;45570;-78
2022/09/30 03:25:11;;;;;;;;;13.25;12.75;;;;;11.54;65.64;100219.00;4784843;29;45688;-78
2022/09/30 03:27:55;;;;;;;;;20.00;16.75;;;;;11.49;65.88;100229.03;4784860;29;46289;-77
2022/09/30 03:30:27;;;;;;;;;16.50;15.00;;;;;11.44;65.95;100225.13;4784468;29;45655;-78
2022/09/30 03:36:37;;;;;;;;;16.50;15.25;;;;;11.42;65.98;100240.97;4784166;29;46049;-76
2022/09/30 03:39:08;;;;;;;;;15.25;14.00;;;;;11.41;66.26;100235.84;4784605;29;46725;-80
2022/09/30 03:41:46;;;;;;;;;15.50;14.00;;;;;11.38;66.09;100234.31;4784579;29;45870;-77
2022/09/30 03:44:29;;;;;;;;;18.25;14.75;;;;;11.41;66.27;100247.16;4784603;29;45697;-80
2022/09/30 03:53:12;;;;;;;;;20.25;15.25;;;;;11.32;66.46;100267.09;4830982;29;45634;-78
2022/09/30 03:55:49;;;;;;;;;15.50;14.00;;;;;11.32;66.68;100280.22;4841600;29;45627;-77
2022/09/30 03:58:16;;;;;;;;;17.00;14.00;;;;;11.29;66.63;100275.19;4841474;29;46363;-79
2022/09/30 04:00:49;;;;;;;;;16.50;15.25;;;;;11.31;66.69;100278.53;4841181;29;45614;-77
2022/09/30 04:03:19;;;;;;;;;17.75;15.00;;;;;11.32;66.62;100287.25;4870846;29;45647;-78
2022/09/30 04:05:45;;;;;;;;;17.25;17.00;;;;;11.30;66.67;100291.75;4841235;29;45641;-77
2022/09/30 04:08:11;;;;;;;;;18.00;16.00;;;;;11.33;66.84;100296.78;4841118;29;45533;-76
2022/09/30 04:10:41;;;;;;;;;17.00;15.25;;;;;11.30;66.76;100299.63;4841297;29;46184;-77
2022/09/30 04:13:07;;;;;;;;;17.00;14.75;;;;;11.29;66.76;100306.66;4841230;29;45908;-78
2022/09/30 04:15:33;;;;;;;;;17.00;15.00;;;;;11.25;66.80;100310.50;4841383;29;45750;-78
2022/09/30 04:18:02;;;;;;;;;18.25;16.75;;;;;11.27;66.90;100318.25;4841178;29;46442;-78
2022/09/30 04:20:33;;;;;;;;;19.50;16.75;;;;;11.23;66.77;100317.63;4840793;29;46051;-78
2022/09/30 04:23:00;;;;;;;;;16.00;14.00;;;;;11.24;67.14;100326.34;4841049;29;45968;-79
2022/09/30 04:25:31;;;;;;;;;13.75;13.00;;;;;11.21;67.08;100330.06;4841186;29;45850;-77
2022/09/30 04:28:13;;;;;;;;;17.75;16.25;;;;;11.22;67.11;100336.97;4840970;29;46263;-80
2022/09/30 04:30:39;;;;;;;;;15.25;14.75;;;;;11.16;66.94;100333.97;4840929;29;45666;-76
2022/09/30 04:33:11;;;;;;;;;15.75;14.25;;;;;11.15;67.11;100338.38;4840873;29;45659;-78
2022/09/30 04:35:42;;;;;;;;;19.00;16.75;;;;;11.13;67.18;100342.06;4847101;29;45512;-75
2022/09/30 04:38:07;;;;;;;;;13.75;13.25;;;;;11.11;67.36;100341.38;4862865;29;46712;-76
2022/09/30 04:40:40;;;;;;;;;4.00;2.25;;;;;11.10;67.32;100342.31;4862686;29;45693;-78
2022/09/30 04:43:05;;;;;;;;;18.50;17.00;;;;;11.05;67.45;100336.59;4862829;29;45667;-79
2022/09/30 04:45:31;;;;;;;;;18.00;16.00;;;;;11.03;67.44;100346.34;4862900;29;45608;-79
2022/09/30 04:47:56;;;;;;;;;12.50;11.50;;;;;11.04;67.61;100346.25;4862898;29;46332;-78
2022/09/30 04:50:21;;;;;;;;;18.00;14.00;;;;;11.02;67.39;100342.06;4862751;29;46497;-78
2022/09/30 04:52:49;;;;;;;;;14.50;14.50;;;;;11.04;67.53;100345.41;4862420;29;45721;-76
2022/09/30 04:55:14;;;;;;;;;19.00;14.75;;;;;11.05;67.54;100347.09;4862892;29;45710;-78
2022/09/30 04:57:44;;;;;;;;;13.00;13.00;;;;;11.03;67.58;100351.59;4862605;29;45508;-79
2022/09/30 05:00:10;;;;;;;;;15.75;14.50;;;;;11.01;67.60;100348.28;4862450;29;45682;-79
2022/09/30 05:02:35;;;;;;;;;16.75;16.00;;;;;10.93;67.57;100341.00;4862371;29;45682;-79
2022/09/30 05:08:23;;;;;;;;;15.25;14.50;;;;;10.84;67.51;100357.44;4861596;29;45573;-81
2022/09/30 05:10:56;;;;;;;;;17.50;15.50;;;;;10.78;67.86;100361.34;4876255;29;47006;-81
2022/09/30 05:13:25;;;;;;;;;15.50;14.00;;;;;10.72;68.03;100358.34;4862097;29;45683;-80
2022/09/30 05:15:53;;;;;;;;;13.50;13.50;;;;;10.69;68.22;100354.16;4862416;29;45705;-78
2022/09/30 05:18:19;;;;;;;;;17.25;14.25;;;;;10.67;68.20;100361.34;4862059;29;45612;-78
2022/09/30 05:20:47;;;;;;;;;14.50;13.75;;;;;10.67;68.13;100363.13;4861990;29;46136;-77
2022/09/30 05:23:12;;;;;;;;;17.50;15.25;;;;;10.67;68.27;100368.34;4862021;29;45575;-76
2022/09/30 05:25:38;;;;;;;;;13.50;13.25;;;;;10.63;68.28;100359.06;4862411;29;45588;-77
2022/09/30 05:28:03;;;;;;;;;17.50;16.75;;;;;10.59;68.60;100362.84;4861920;29;46346;-75
2022/09/30 05:30:28;;;;;;;;;16.00;15.25;;;;;10.59;68.50;100368.06;4861845;29;46029;-77
2022/09/30 05:32:54;;;;;;;;;16.75;16.00;;;;;10.56;68.53;100363.91;4861835;29;45628;-76
2022/09/30 05:39:09;;;;;;;;;16.75;16.00;;;;;10.56;68.62;100370.94;4854979;29;45890;-79
2022/09/30 05:41:37;;;;;;;;;16.00;14.00;;;;;10.51;68.70;100376.53;4861715;29;46047;-75
2022/09/30 05:44:04;;;;;;;;;17.25;16.50;;;;;10.50;68.80;100373.06;4861686;29;45525;-75
2022/09/30 05:46:32;;;;;;;;;17.00;16.75;;;;;10.53;68.58;100383.31;4861206;29;45530;-72
2022/09/30 05:48:57;;;;;;;;;16.50;15.00;;;;;10.55;68.98;100379.75;4861253;29;47020;-75
2022/09/30 05:51:23;;;;;;;;;19.75;15.00;;;;;10.57;68.90;100383.94;4861256;29;46071;-74
2022/09/30 05:53:48;;;;;;;;;17.50;15.75;;;;;10.59;68.73;100383.78;4861224;29;45693;-76
2022/09/30 05:56:16;;;;;;;;;16.50;14.25;;;;;10.60;68.91;100383.69;4861230;29;45740;-75
2022/09/30 05:58:42;;;;;;;;;18.00;17.50;;;;;10.59;68.57;100379.38;4860537;29;46551;-83
2022/09/30 06:01:13;;;;;;;;;18.25;17.00;;;;;10.64;68.71;100387.75;4844192;29;47800;-72
2022/09/30 06:03:39;;;;;;;;;17.00;16.50;;;;;10.66;68.73;100382.41;4861101;29;45710;-74
2022/09/30 06:06:05;;;;;;;;;16.50;15.00;;;;;10.70;68.42;100395.16;4860759;29;45522;-74
2022/09/30 06:08:42;;;;;;;;;23.00;18.25;;;;;10.73;68.16;100400.19;4860831;29;46597;-77
2022/09/30 06:11:13;;;;;;;;;19.75;19.00;;;;;10.78;68.41;100403.28;4843884;29;47600;-75
2022/09/30 06:13:40;;;;;;;;;18.00;16.00;;;;;10.82;68.28;100411.75;4860972;29;45931;-77
2022/09/30 06:16:06;;;;;;;;;17.00;14.75;;;;;10.86;68.42;100419.25;4861184;29;45791;-73
2022/09/30 06:18:32;;;;;;;;;23.00;18.25;;;;;10.88;68.26;100413.91;4860823;29;46711;-76
2022/09/30 06:24:19;;;;;;;;;18.25;16.75;;;;;10.90;68.28;100425.13;4860718;29;45861;-74
2022/09/30 06:26:54;;;;;;;;;;;;;;;;;;;;;
2022/09/30 06:29:20;;;;;;;;;20.50;19.25;;;;;10.91;68.06;100427.59;4859435;29;74240;-75
2022/09/30 06:31:48;;;;;;;;;23.00;19.50;;;;;10.94;68.21;100430.00;4860728;29;45652;-76
2022/09/30 06:34:17;;;;;;;;;19.00;18.75;;;;;10.96;68.16;100439.53;4860459;29;45810;-74
2022/09/30 06:36:47;;;;;;;;;21.25;18.75;;;;;10.98;67.98;100441.09;4860947;29;45588;-75
2022/09/30 06:39:15;;;;;;;;;20.25;18.00;;;;;11.01;68.04;100434.78;4860380;29;46306;-75
2022/09/30 06:41:42;;;;;;;;;19.75;19.75;;;;;11.03;67.93;100436.31;4860690;29;46431;-75
2022/09/30 06:44:17;;;;;;;;;17.75;17.75;;;;;11.07;67.52;100429.06;4861068;29;45665;-74
2022/09/30 06:46:43;;;;;;;;;19.25;18.00;;;;;11.09;67.78;100432.41;4861031;29;45861;-74
2022/09/30 06:49:08;;;;;;;;;21.25;20.00;;;;;11.11;67.63;100447.09;4860883;29;46201;-74
2022/09/30 06:51:35;;;;;;;;;24.25;21.00;;;;;11.14;67.86;100444.22;4860357;29;47196;-75
2022/09/30 06:54:00;;;;;;;;;21.00;18.50;;;;;11.16;68.02;100451.97;4843777;29;45858;-74
2022/09/30 06:56:26;;;;;;;;;23.00;22.50;;;;;11.16;67.76;100455.44;4843165;29;45833;-73
2022/09/30 06:58:52;;;;;;;;;24.50;22.75;;;;;11.17;67.65;100454.50;4860058;29;46514;-75
2022/09/30 07:01:19;;;;;;;;;18.50;17.75;;;;;11.18;67.71;100448.25;4860881;29;45909;-74
2022/09/30 07:03:45;;;;;;;;;25.25;23.50;;;;;11.23;67.90;100455.78;4860381;29;46027;-74
2022/09/30 07:09:34;;;;;;;;;27.25;24.50;;;;;11.30;67.52;100454.38;4860413;29;45537;-74
2022/09/30 07:12:03;;;;;;;;;29.00;26.00;;;;;11.31;67.41;100450.81;4860602;29;46136;-74
2022/09/30 07:14:30;;;;;;;;;25.75;24.00;;;;;11.33;67.36;100441.03;4859052;29;46551;-74
2022/09/30 07:17:08;;;;;;;;;21.00;20.00;;;;;11.38;67.30;100438.91;4860985;29;45761;-74
2022/09/30 07:19:34;;;;;;;;;25.50;20.50;;;;;11.42;67.21;100440.31;4843358;29;46557;-74
2022/09/30 07:22:26;;;;;;;;;26.50;24.25;;;;;11.46;67.25;100440.91;4860368;29;45711;-73
2022/09/30 07:24:45;;;;;;;;;26.25;23.75;;;;;11.50;67.16;100445.78;4860726;29;45887;-74
2022/09/30 07:27:12;;;;;;;;;20.50;19.25;;;;;11.55;67.06;100448.09;4860403;29;45585;-74
2022/09/30 07:29:39;;;;;;;;;22.00;20.00;;;;;11.58;66.86;100440.78;4860454;29;46350;-74
2022/09/30 07:32:04;;;;;;;;;25.75;24.25;;;;;11.61;66.85;100445.78;4860613;29;45550;-75
2022/09/30 07:34:30;;;;;;;;;24.75;23.50;;;;;11.66;66.92;100459.38;4860207;29;45658;-75
2022/09/30 07:36:55;;;;;;;;;21.00;20.25;;;;;11.70;66.71;100460.84;4860609;29;45560;-75
2022/09/30 07:39:20;;;;;;;;;25.50;24.50;;;;;11.73;66.71;100457.16;4859884;29;46587;-75
2022/09/30 07:41:46;;;;;;;;;26.00;25.00;;;;;11.77;66.64;100456.78;4860119;29;46196;-74
2022/09/30 07:44:16;;;;;;;;;25.50;21.50;;;;;11.82;66.68;100466.97;4859765;29;45538;-75
2022/09/30 07:46:43;;;;;;;;;22.50;21.00;;;;;11.86;66.80;100470.16;4860336;29;45794;-74
2022/09/30 07:49:13;;;;;;;;;26.50;24.75;;;;;11.90;66.49;100467.19;4859862;29;46506;-74
2022/09/30 07:55:00;;;;;;;;;26.75;23.50;;;;;11.96;66.51;100464.06;4859169;29;45534;-75
2022/09/30 07:57:26;;;;;;;;;22.00;21.50;;;;;12.00;66.35;100462.84;4859894;29;45544;-74
2022/09/30 07:59:51;;;;;;;;;21.50;20.75;;;;;12.03;66.38;100467.06;4860070;29;46107;-75
2022/09/30 08:02:18;;;;;;;;;27.75;26.25;;;;;12.07;66.28;100473.72;4860142;29;46265;-76
2022/09/30 08:04:44;;;;;;;;;26.50;24.00;;;;;12.10;66.22;100476.09;4859422;29;45704;-75
2022/09/30 08:07:10;;;;;;;;;28.75;28.25;;;;;12.15;66.19;100466.06;4859570;29;45609;-75
2022/09/30 08:09:35;;;;;;;;;28.75;24.25;;;;;12.17;65.82;100470.25;4862374;29;45582;-75
2022/09/30 08:12:03;;;;;;;;;25.75;25.25;;;;;12.24;65.54;100461.88;4862799;29;46222;-75
2022/09/30 08:14:28;;;;;;;;;28.00;25.75;;;;;12.26;65.70;100462.56;4862870;29;45849;-75
2022/09/30 08:16:59;;;;;;;;;26.75;23.75;;;;;12.30;65.50;100466.63;4863077;29;45738;-74
2022/09/30 08:19:25;;;;;;;;;30.25;26.75;;;;;12.35;65.66;100467.94;4862469;29;46477;-74
2022/09/30 08:25:15;;;;;;;;;33.50;31.00;;;;;12.46;65.37;100477.56;4862465;29;45582;-75
2022/09/30 08:27:43;;;;;;;;;27.00;26.25;;;;;12.49;65.15;100475.53;4863158;29;45521;-75
2022/09/30 08:30:08;;;;;;;;;30.25;27.75;;;;;12.54;65.08;100473.34;4862474;29;46033;-75
2022/09/30 08:32:34;;;;;;;;;32.00;27.75;;;;;12.58;65.14;100472.13;4862202;29;45663;-75
2022/09/30 08:34:59;;;;;;;;;31.50;28.75;;;;;12.63;64.66;100470.94;4862624;29;45560;-75
2022/09/30 08:37:30;;;;;;;;;32.50;29.25;;;;;12.67;64.71;100481.09;4862660;29;45697;-74
2022/09/30 08:39:55;;;;;;;;;35.00;31.00;;;;;12.72;64.75;100476.28;4860837;29;46654;-75
2022/09/30 08:42:30;;;;;;;;;31.50;27.75;;;;;12.76;64.72;100472.44;4862560;29;46179;-75
2022/09/30 08:45:13;;;;;;;;;30.75;28.00;;;;;12.82;64.60;100477.19;4862303;29;45860;-77
2022/09/30 08:48:04;;;;;;;;;30.50;27.25;;;;;12.89;64.02;100485.41;4862678;29;45592;-75
2022/09/30 08:50:47;;;;;;;;;27.75;25.50;;;;;12.95;64.22;100477.84;4854918;29;46335;-76
2022/09/30 08:53:24;;;;;;;;;30.50;27.50;;;;;13.00;64.04;100472.22;4862265;29;46085;-75
2022/09/30 08:55:53;;;;;;;;;27.50;25.75;;;;;13.06;63.65;100476.13;4862088;29;45883;-75
2022/09/30 08:58:27;;;;;;;;;30.25;26.75;;;;;13.09;63.43;100468.81;4862450;29;45776;-76
2022/09/30 09:01:01;;;;;;;;;28.25;25.50;;;;;13.17;63.51;100469.00;4861824;29;47347;-76
2022/09/30 09:03:29;;;;;;;;;27.25;25.25;;;;;13.21;63.55;100470.44;4876369;29;46035;-76
2022/09/30 09:06:07;;;;;;;;;22.75;20.50;;;;;13.28;63.08;100476.84;4862109;29;45637;-75
2022/09/30 09:08:48;;;;;;;;;28.00;24.50;;;;;13.33;63.01;100477.28;4860922;29;45990;-75
2022/09/30 09:11:38;;;;;;;;;23.00;19.50;;;;;13.37;62.70;100473.44;4862136;29;46282;-75
2022/09/30 09:14:19;;;;;;;;;20.00;18.50;;;;;13.41;62.15;100466.13;4861846;29;46262;-76
2022/09/30 09:17:10;;;;;;;;;11.50;11.00;;;;;13.49;61.27;100476.00;4861948;29;45910;-75
2022/09/30 09:19:46;;;;;;;;;15.00;12.75;;;;;13.54;60.90;100474.66;4861405;29;45593;-78
2022/09/30 09:22:12;;;;;;;;;10.00;9.50;;;;;13.56;59.86;100482.38;4861820;29;47600;-76
2022/09/30 09:24:46;;;;;;;;;8.50;8.50;;;;;13.62;59.63;100485.34;4862087;29;45755;-76
2022/09/30 09:27:31;;;;;;;;;12.50;11.75;;;;;13.70;59.89;100495.22;4862134;29;45830;-77
2022/09/30 09:30:00;;;;;;;;;18.25;17.25;;;;;13.75;59.81;100488.59;4855047;29;47072;-75
2022/09/30 09:32:26;;;;;;;;;16.75;15.75;;;;;13.81;59.83;100487.22;4860175;29;47742;-75
2022/09/30 09:34:58;;;;;;;;;11.25;9.50;;;;;13.89;59.91;100490.03;4861683;29;46231;-75
2022/09/30 09:40:58;;;;;;;;;18.00;14.50;;;;;14.03;59.26;100497.56;4861667;29;45580;-75
2022/09/30 09:43:47;;;;;;;;;13.50;13.00;;;;;14.10;59.16;100496.06;4861321;29;47397;-76
2022/09/30 09:46:19;;;;;;;;;13.00;11.00;;;;;14.18;59.56;100504.13;4861379;29;46365;-75
2022/09/30 09:48:45;;;;;;;;;15.00;12.25;;;;;14.23;59.59;100509.84;4861341;29;45710;-75
2022/09/30 09:54:46;;;;;;;;;12.00;10.00;;;;;14.36;59.17;100503.50;4861069;29;45459;-75
2022/09/30 09:57:17;;;;;;;;;11.25;10.50;;;;;14.43;58.75;100497.53;4861161;29;46199;-75
2022/09/30 10:03:02;;;;;;;;;9.00;9.00;;;;;14.52;57.50;100493.28;4861174;29;45629;-78
2022/09/30 10:05:38;;;;;;;;;10.75;10.75;;;;;14.55;57.33;100493.81;4861476;29;45600;-75
2022/09/30 10:08:18;;;;;;;;;10.75;10.75;;;;;14.63;57.34;100495.75;4861037;29;46071;-76
2022/09/30 10:10:55;;;;;;;;;14.00;11.75;;;;;14.69;57.75;100497.84;4861289;29;45598;-76
2022/09/30 10:13:28;;;;;;;;;11.00;10.25;;;;;14.78;57.85;100506.75;4861473;29;45637;-75
2022/09/30 10:15:56;;;;;;;;;10.75;10.25;;;;;14.85;57.81;100499.94;4860348;29;47377;-76
2022/09/30 10:18:28;;;;;;;;;8.00;8.00;;;;;14.90;57.86;100501.19;4861052;29;46733;-76
2022/09/30 10:21:22;;;;;;;;;11.00;9.75;;;;;14.95;56.83;100504.22;4861170;29;45557;-77
2022/09/30 10:23:48;;;;;;;;;13.50;12.25;;;;;15.00;56.74;100495.94;4803821;29;45585;-75
2022/09/30 10:26:13;;;;;;;;;9.50;9.25;;;;;15.05;56.98;100504.25;4803532;29;46886;-74
2022/09/30 10:28:56;;;;;;;;;6.75;6.50;;;;;15.09;56.50;100495.06;4803518;29;46258;-75
2022/09/30 10:31:35;;;;;;;;;12.50;11.50;;;;;15.16;56.55;100498.00;4803395;29;45561;-76
2022/09/30 10:34:11;;;;;;;;;11.50;10.75;;;;;15.19;56.35;100497.69;4803722;29;45648;-76
2022/09/30 10:36:39;;;;;;;;;11.75;11.25;;;;;15.23;56.21;100505.19;4803112;29;46712;-75
2022/09/30 10:39:17;;;;;;;;;11.75;10.50;;;;;15.29;55.98;100503.78;4803224;29;46250;-76
2022/09/30 10:41:42;;;;;;;;;12.00;11.50;;;;;15.32;55.67;100496.44;4803706;29;45574;-76
2022/09/30 10:44:21;;;;;;;;;11.75;11.75;;;;;15.36;55.54;100497.81;4803648;29;45830;-76
2022/09/30 10:46:52;;;;;;;;;13.25;12.25;;;;;15.41;55.97;100500.00;4802947;29;46846;-74
2022/09/30 10:49:45;;;;;;;;;11.00;10.50;;;;;15.46;55.58;100503.06;4802879;29;46404;-74
2022/09/30 10:52:23;;;;;;;;;11.25;9.75;;;;;15.52;55.88;100507.81;4803389;29;45765;-74
2022/09/30 10:54:52;;;;;;;;;7.25;6.25;;;;;15.56;55.82;100495.97;4803457;29;45699;-74
2022/09/30 10:57:28;;;;;;;;;9.75;9.00;;;;;15.61;55.42;100495.53;4802967;29;47432;-74
2022/09/30 11:00:12;;;;;;;;;11.50;8.25;;;;;15.66;55.22;100491.50;4795352;29;47266;-74
2022/09/30 11:02:45;;;;;;;;;10.25;9.50;;;;;15.71;54.88;100491.09;4860516;29;45766;-75
2022/09/30 11:05:29;;;;;;;;;9.00;8.00;;;;;15.77;54.69;100490.47;4860840;29;45614;-77
2022/09/30 11:07:57;;;;;;;;;8.00;6.50;;;;;15.81;54.71;100492.72;4860091;29;46643;-75
2022/09/30 11:10:22;;;;;;;;;6.25;6.25;;;;;15.86;54.48;100482.53;4860263;29;46109;-76
2022/09/30 11:13:03;;;;;;;;;10.00;9.00;;;;;15.91;53.83;100485.56;4860109;29;45629;-73
2022/09/30 11:15:39;;;;;;;;;8.00;8.00;;;;;16.01;53.74;100482.03;4860711;29;45787;-76
2022/09/30 11:18:10;;;;;;;;;8.25;8.00;;;;;16.13;53.90;100491.44;4860015;29;46802;-77
2022/09/30 11:23:49;;;;;;;;;6.75;5.50;;;;;16.30;52.84;100494.09;4859876;29;45787;-75
2022/09/30 11:26:37;;;;;;;;;6.25;5.75;;;;;16.42;52.46;100489.44;4860036;29;45810;-77
2022/09/30 11:29:35;;;;;;;;;7.00;6.25;;;;;16.53;51.84;100497.16;4860005;29;45636;-76
2022/09/30 11:32:32;;;;;;;;;6.00;6.00;;;;;16.66;51.96;100481.78;4859925;29;47385;-75
2022/09/30 11:35:22;;;;;;;;;5.00;5.00;;;;;16.78;51.25;100488.53;4843148;29;45715;-74
2022/09/30 11:41:42;;;;;;;;;5.50;5.00;;;;;16.99;51.21;100492.66;4856512;29;45942;-76
2022/09/30 11:44:30;;;;;;;;;6.00;6.00;;;;;17.05;50.61;100486.75;4859262;29;45538;-75
2022/09/30 11:47:04;;;;;;;;;6.00;5.00;;;;;17.15;50.56;100490.97;4859676;29;45642;-74
2022/09/30 11:49:42;;;;;;;;;5.00;4.75;;;;;17.23;49.72;100492.84;4859747;29;45762;-75
2022/09/30 11:56:01;;;;;;;;;4.00;3.00;;;;;17.35;49.39;100483.66;4859389;29;45955;-75
2022/09/30 11:58:42;;;;;;;;;4.00;3.50;;;;;17.39;50.09;100478.88;4858262;29;45852;-76
2022/09/30 12:01:10;;;;;;;;;3.25;3.25;;;;;17.44;48.77;100477.41;4859389;29;45718;-76
2022/09/30 12:03:43;;;;;;;;;3.25;3.25;;;;;17.48;48.55;100464.72;4842125;29;47619;-75
2022/09/30 12:12:48;;;;;;;;;4.25;3.25;;;;;17.61;48.26;100475.72;4859429;29;45568;-75
2022/09/30 12:15:17;;;;;;;;;3.75;2.75;;;;;17.68;48.15;100473.28;4859386;29;45987;-74
2022/09/30 12:17:48;;;;;;;;;4.00;3.50;;;;;17.72;48.27;100466.66;4859123;29;46120;-78
2022/09/30 12:20:25;;;;;;;;;5.75;5.25;;;;;17.80;47.78;100462.25;4859133;29;45729;-76
2022/09/30 12:22:57;;;;;;;;;2.25;2.25;;;;;17.87;48.11;100462.44;4859113;29;45601;-73
2022/09/30 12:25:32;;;;;;;;;2.75;2.75;;;;;17.96;47.08;100453.53;4859189;29;45876;-77
2022/09/30 12:31:26;;;;;;;;;3.00;2.00;;;;;18.07;46.44;100445.28;4859314;29;45714;-76
2022/09/30 12:33:52;;;;;;;;;4.25;3.50;;;;;18.08;46.14;100454.91;4844045;29;45655;-74
2022/09/30 12:39:50;;;;;;;;;2.00;2.00;;;;;18.08;46.42;100443.47;4858749;29;45660;-74
2022/09/30 12:42:36;;;;;;;;;4.25;3.00;;;;;18.08;47.12;100446.13;4859161;29;45612;-75
2022/09/30 12:45:23;;;;;;;;;3.75;3.25;;;;;18.06;46.70;100440.97;4859057;29;45834;-74
2022/09/30 12:47:56;;;;;;;;;2.00;2.00;;;;;18.04;46.62;100440.28;4858942;29;45569;-74
2022/09/30 12:50:27;;;;;;;;;3.75;3.00;;;;;18.02;46.15;100437.81;4858656;29;47198;-76
2022/09/30 12:56:15;;;;;;;;;3.25;3.00;;;;;18.02;45.65;100439.63;4861290;29;45660;-75
2022/09/30 12:58:46;;;;;;;;;3.25;3.00;;;;;18.01;46.27;100427.38;4861773;29;47567;-75
2022/09/30 13:01:16;;;;;;;;;4.00;2.50;;;;;18.02;46.17;100424.56;4862325;29;46078;-75
2022/09/30 13:04:08;;;;;;;;;3.50;3.50;;;;;18.05;45.58;100418.09;4861693;29;45790;-74
2022/09/30 13:13:26;;;;;;;;;2.25;2.00;;;;;18.24;44.65;100415.16;4861645;29;45881;-75
2022/09/30 13:16:01;;;;;;;;;3.00;3.00;;;;;18.28;44.91;100408.53;4845038;29;45726;-75
2022/09/30 13:18:28;;;;;;;;;3.00;2.75;;;;;18.35;44.17;100414.03;4862038;29;45443;-76